sensor_id;sensor_type;location;lat;lon;timestamp;P1;durP1;ratioP1;P2;durP2;ratioP2
21386;SDS011;10854;45.922;6.716;2022-11-20T00:01:39;5.70;;;3.60;;
21386;SDS011;10854;45.922;6.716;2022-11-20T00:04:07;4.50;;;3.20;;
21386;SDS011;10854;45.922;6.716;2022-11-20T00:06:40;4.67;;;3.33;;
21386;SDS011;10854;45.922;6.716;2022-11-20T00:09:08;4.23;;;2.93;;
21386;SDS011;10854;45.922;6.716;2022-11-20T00:11:38;4.13;;;2.87;;
21386;SDS011;10854;45.922;6.716;2022-11-20T00:14:08;4.33;;;3.07;;
21386;SDS011;10854;45.922;6.716;2022-11-20T00:16:38;4.93;;;2.90;;
21386;SDS011;10854;45.922;6.716;2022-11-20T00:19:07;5.43;;;3.10;;
21386;SDS011;10854;45.922;6.716;2022-11-20T00:21:35;5.10;;;3.30;;
21386;SDS011;10854;45.922;6.716;2022-11-20T00:24:04;8.13;;;3.47;;
21386;SDS011;10854;45.922;6.716;2022-11-20T00:26:34;8.83;;;3.90;;
21386;SDS011;10854;45.922;6.716;2022-11-20T00:29:03;8.03;;;4.13;;
21386;SDS011;10854;45.922;6.716;2022-11-20T00:31:32;5.80;;;3.40;;
21386;SDS011;10854;45.922;6.716;2022-11-20T00:34:02;5.47;;;3.77;;
21386;SDS011;10854;45.922;6.716;2022-11-20T00:36:33;5.37;;;3.00;;
21386;SDS011;10854;45.922;6.716;2022-11-20T00:39:04;5.00;;;3.20;;
21386;SDS011;10854;45.922;6.716;2022-11-20T00:41:32;4.40;;;2.97;;
21386;SDS011;10854;45.922;6.716;2022-11-20T00:44:01;4.13;;;2.77;;
21386;SDS011;10854;45.922;6.716;2022-11-20T00:46:31;5.50;;;2.63;;
21386;SDS011;10854;45.922;6.716;2022-11-20T00:48:59;2.70;;;2.40;;
21386;SDS011;10854;45.922;6.716;2022-11-20T00:51:28;6.27;;;2.63;;
21386;SDS011;10854;45.922;6.716;2022-11-20T00:53:57;3.10;;;2.37;;
21386;SDS011;10854;45.922;6.716;2022-11-20T00:56:29;2.90;;;2.47;;
21386;SDS011;10854;45.922;6.716;2022-11-20T00:58:59;2.20;;;1.80;;
21386;SDS011;10854;45.922;6.716;2022-11-20T01:01:48;2.90;;;2.27;;
21386;SDS011;10854;45.922;6.716;2022-11-20T01:04:17;3.67;;;2.40;;
21386;SDS011;10854;45.922;6.716;2022-11-20T01:06:46;2.97;;;2.23;;
21386;SDS011;10854;45.922;6.716;2022-11-20T01:09:15;2.90;;;2.10;;
21386;SDS011;10854;45.922;6.716;2022-11-20T01:11:44;2.30;;;1.90;;
21386;SDS011;10854;45.922;6.716;2022-11-20T01:14:14;2.40;;;1.87;;
21386;SDS011;10854;45.922;6.716;2022-11-20T01:16:46;2.53;;;1.60;;
21386;SDS011;10854;45.922;6.716;2022-11-20T01:19:18;2.90;;;1.80;;
21386;SDS011;10854;45.922;6.716;2022-11-20T01:21:50;3.97;;;2.20;;
21386;SDS011;10854;45.922;6.716;2022-11-20T01:24:22;4.13;;;2.40;;
21386;SDS011;10854;45.922;6.716;2022-11-20T01:26:54;3.00;;;1.90;;
21386;SDS011;10854;45.922;6.716;2022-11-20T01:29:24;2.37;;;1.70;;
21386;SDS011;10854;45.922;6.716;2022-11-20T01:31:54;5.00;;;2.10;;
21386;SDS011;10854;45.922;6.716;2022-11-20T01:34:23;4.07;;;2.77;;
21386;SDS011;10854;45.922;6.716;2022-11-20T01:36:54;7.47;;;4.20;;
21386;SDS011;10854;45.922;6.716;2022-11-20T01:39:23;5.33;;;3.20;;
21386;SDS011;10854;45.922;6.716;2022-11-20T01:41:54;3.93;;;2.27;;
21386;SDS011;10854;45.922;6.716;2022-11-20T01:44:58;3.20;;;1.80;;
21386;SDS011;10854;45.922;6.716;2022-11-20T01:52:54;2.83;;;2.00;;
21386;SDS011;10854;45.922;6.716;2022-11-20T01:55:30;2.00;;;1.50;;
21386;SDS011;10854;45.922;6.716;2022-11-20T01:58:03;3.17;;;1.70;;
21386;SDS011;10854;45.922;6.716;2022-11-20T02:00:34;2.37;;;1.57;;
21386;SDS011;10854;45.922;6.716;2022-11-20T02:03:03;2.07;;;1.57;;
21386;SDS011;10854;45.922;6.716;2022-11-20T02:08:28;2.57;;;1.60;;
21386;SDS011;10854;45.922;6.716;2022-11-20T02:10:57;2.63;;;1.70;;
21386;SDS011;10854;45.922;6.716;2022-11-20T02:13:25;2.53;;;1.90;;
21386;SDS011;10854;45.922;6.716;2022-11-20T02:16:14;3.83;;;1.73;;
21386;SDS011;10854;45.922;6.716;2022-11-20T02:18:52;2.67;;;1.70;;
21386;SDS011;10854;45.922;6.716;2022-11-20T02:24:02;2.33;;;1.83;;
21386;SDS011;10854;45.922;6.716;2022-11-20T02:26:54;3.13;;;2.13;;
21386;SDS011;10854;45.922;6.716;2022-11-20T02:32:27;3.10;;;2.00;;
21386;SDS011;10854;45.922;6.716;2022-11-20T02:34:57;3.47;;;2.23;;
21386;SDS011;10854;45.922;6.716;2022-11-20T02:37:29;2.80;;;2.13;;
21386;SDS011;10854;45.922;6.716;2022-11-20T02:40:00;1.90;;;1.50;;
21386;SDS011;10854;45.922;6.716;2022-11-20T02:42:29;2.73;;;1.60;;
21386;SDS011;10854;45.922;6.716;2022-11-20T02:44:57;2.37;;;1.50;;
21386;SDS011;10854;45.922;6.716;2022-11-20T02:47:26;3.87;;;1.50;;
21386;SDS011;10854;45.922;6.716;2022-11-20T02:49:55;2.17;;;1.50;;
21386;SDS011;10854;45.922;6.716;2022-11-20T02:52:24;1.77;;;1.40;;
21386;SDS011;10854;45.922;6.716;2022-11-20T02:54:53;1.20;;;1.10;;
21386;SDS011;10854;45.922;6.716;2022-11-20T02:57:21;2.33;;;1.47;;
21386;SDS011;10854;45.922;6.716;2022-11-20T02:59:50;1.50;;;1.40;;
21386;SDS011;10854;45.922;6.716;2022-11-20T03:02:19;1.83;;;1.47;;
21386;SDS011;10854;45.922;6.716;2022-11-20T03:04:48;1.67;;;1.20;;
21386;SDS011;10854;45.922;6.716;2022-11-20T03:07:17;2.70;;;1.50;;
21386;SDS011;10854;45.922;6.716;2022-11-20T03:09:46;1.53;;;1.30;;
21386;SDS011;10854;45.922;6.716;2022-11-20T03:12:15;1.77;;;1.40;;
21386;SDS011;10854;45.922;6.716;2022-11-20T03:14:44;1.97;;;1.60;;
21386;SDS011;10854;45.922;6.716;2022-11-20T03:17:16;2.23;;;1.80;;
21386;SDS011;10854;45.922;6.716;2022-11-20T03:19:45;2.17;;;1.33;;
21386;SDS011;10854;45.922;6.716;2022-11-20T03:22:14;2.57;;;1.77;;
21386;SDS011;10854;45.922;6.716;2022-11-20T03:24:43;1.93;;;1.40;;
21386;SDS011;10854;45.922;6.716;2022-11-20T03:27:12;2.27;;;1.30;;
21386;SDS011;10854;45.922;6.716;2022-11-20T03:29:41;2.37;;;1.47;;
21386;SDS011;10854;45.922;6.716;2022-11-20T03:32:12;1.80;;;1.30;;
21386;SDS011;10854;45.922;6.716;2022-11-20T03:34:42;1.57;;;1.20;;
21386;SDS011;10854;45.922;6.716;2022-11-20T03:37:12;1.47;;;1.23;;
21386;SDS011;10854;45.922;6.716;2022-11-20T03:39:45;1.40;;;1.30;;
21386;SDS011;10854;45.922;6.716;2022-11-20T03:42:15;1.83;;;1.40;;
21386;SDS011;10854;45.922;6.716;2022-11-20T03:45:03;1.77;;;1.20;;
21386;SDS011;10854;45.922;6.716;2022-11-20T03:47:32;2.73;;;1.30;;
21386;SDS011;10854;45.922;6.716;2022-11-20T03:50:01;1.47;;;1.30;;
21386;SDS011;10854;45.922;6.716;2022-11-20T03:52:30;1.23;;;1.13;;
21386;SDS011;10854;45.922;6.716;2022-11-20T03:55:00;1.47;;;1.20;;
21386;SDS011;10854;45.922;6.716;2022-11-20T03:57:31;1.80;;;1.20;;
21386;SDS011;10854;45.922;6.716;2022-11-20T03:59:59;1.77;;;1.27;;
21386;SDS011;10854;45.922;6.716;2022-11-20T04:02:28;2.20;;;1.67;;
21386;SDS011;10854;45.922;6.716;2022-11-20T04:04:56;2.77;;;1.60;;
21386;SDS011;10854;45.922;6.716;2022-11-20T04:07:26;2.23;;;1.73;;
21386;SDS011;10854;45.922;6.716;2022-11-20T04:09:55;1.77;;;1.33;;
21386;SDS011;10854;45.922;6.716;2022-11-20T04:12:25;4.63;;;1.60;;
21386;SDS011;10854;45.922;6.716;2022-11-20T04:14:54;1.70;;;1.40;;
21386;SDS011;10854;45.922;6.716;2022-11-20T04:17:22;2.07;;;1.53;;
21386;SDS011;10854;45.922;6.716;2022-11-20T04:19:51;2.80;;;1.60;;
21386;SDS011;10854;45.922;6.716;2022-11-20T04:22:20;2.00;;;1.50;;
21386;SDS011;10854;45.922;6.716;2022-11-20T04:24:48;1.50;;;1.37;;
21386;SDS011;10854;45.922;6.716;2022-11-20T04:27:17;2.03;;;1.70;;
21386;SDS011;10854;45.922;6.716;2022-11-20T04:29:45;2.20;;;1.60;;
21386;SDS011;10854;45.922;6.716;2022-11-20T04:32:14;1.60;;;1.30;;
21386;SDS011;10854;45.922;6.716;2022-11-20T04:34:46;5.03;;;3.67;;
21386;SDS011;10854;45.922;6.716;2022-11-20T04:37:15;4.23;;;2.73;;
21386;SDS011;10854;45.922;6.716;2022-11-20T04:39:44;11.97;;;7.03;;
21386;SDS011;10854;45.922;6.716;2022-11-20T04:42:13;6.90;;;4.53;;
21386;SDS011;10854;45.922;6.716;2022-11-20T04:44:58;6.63;;;4.10;;
21386;SDS011;10854;45.922;6.716;2022-11-20T04:47:27;6.30;;;3.57;;
21386;SDS011;10854;45.922;6.716;2022-11-20T04:49:56;13.37;;;7.80;;
21386;SDS011;10854;45.922;6.716;2022-11-20T04:52:25;5.47;;;3.27;;
21386;SDS011;10854;45.922;6.716;2022-11-20T04:54:54;6.50;;;3.93;;
21386;SDS011;10854;45.922;6.716;2022-11-20T04:57:25;7.97;;;4.23;;
21386;SDS011;10854;45.922;6.716;2022-11-20T04:59:53;8.13;;;5.00;;
21386;SDS011;10854;45.922;6.716;2022-11-20T05:02:23;7.63;;;4.47;;
21386;SDS011;10854;45.922;6.716;2022-11-20T05:04:52;6.23;;;3.70;;
21386;SDS011;10854;45.922;6.716;2022-11-20T05:07:20;5.50;;;3.37;;
21386;SDS011;10854;45.922;6.716;2022-11-20T05:09:49;3.33;;;1.90;;
21386;SDS011;10854;45.922;6.716;2022-11-20T05:12:18;3.47;;;2.20;;
21386;SDS011;10854;45.922;6.716;2022-11-20T05:14:46;2.73;;;2.30;;
21386;SDS011;10854;45.922;6.716;2022-11-20T05:17:15;2.97;;;2.23;;
21386;SDS011;10854;45.922;6.716;2022-11-20T05:19:44;1.60;;;1.50;;
21386;SDS011;10854;45.922;6.716;2022-11-20T05:22:15;1.50;;;1.13;;
21386;SDS011;10854;45.922;6.716;2022-11-20T05:24:44;1.10;;;1.00;;
21386;SDS011;10854;45.922;6.716;2022-11-20T05:27:15;1.60;;;1.20;;
21386;SDS011;10854;45.922;6.716;2022-11-20T05:29:43;1.60;;;1.43;;
21386;SDS011;10854;45.922;6.716;2022-11-20T05:32:13;1.73;;;1.33;;
21386;SDS011;10854;45.922;6.716;2022-11-20T05:34:41;1.40;;;1.17;;
21386;SDS011;10854;45.922;6.716;2022-11-20T05:37:10;1.23;;;1.10;;
21386;SDS011;10854;45.922;6.716;2022-11-20T05:39:39;1.97;;;1.30;;
21386;SDS011;10854;45.922;6.716;2022-11-20T05:42:07;1.90;;;1.57;;
21386;SDS011;10854;45.922;6.716;2022-11-20T05:45:02;1.40;;;1.30;;
21386;SDS011;10854;45.922;6.716;2022-11-20T05:47:33;1.70;;;1.37;;
21386;SDS011;10854;45.922;6.716;2022-11-20T05:50:02;1.80;;;1.30;;
21386;SDS011;10854;45.922;6.716;2022-11-20T05:52:31;3.10;;;1.43;;
21386;SDS011;10854;45.922;6.716;2022-11-20T05:55:00;1.70;;;1.20;;
21386;SDS011;10854;45.922;6.716;2022-11-20T05:57:30;1.90;;;1.40;;
21386;SDS011;10854;45.922;6.716;2022-11-20T05:59:59;1.23;;;1.13;;
21386;SDS011;10854;45.922;6.716;2022-11-20T06:02:27;3.40;;;1.27;;
21386;SDS011;10854;45.922;6.716;2022-11-20T06:04:56;1.40;;;1.30;;
21386;SDS011;10854;45.922;6.716;2022-11-20T06:07:26;1.20;;;1.10;;
21386;SDS011;10854;45.922;6.716;2022-11-20T06:09:54;1.10;;;0.90;;
21386;SDS011;10854;45.922;6.716;2022-11-20T06:12:24;1.10;;;0.90;;
21386;SDS011;10854;45.922;6.716;2022-11-20T06:14:52;1.57;;;1.13;;
21386;SDS011;10854;45.922;6.716;2022-11-20T06:17:21;1.27;;;1.03;;
21386;SDS011;10854;45.922;6.716;2022-11-20T06:19:50;2.83;;;1.33;;
21386;SDS011;10854;45.922;6.716;2022-11-20T06:22:19;1.33;;;1.00;;
21386;SDS011;10854;45.922;6.716;2022-11-20T06:24:49;1.20;;;1.00;;
21386;SDS011;10854;45.922;6.716;2022-11-20T06:27:17;2.33;;;1.90;;
21386;SDS011;10854;45.922;6.716;2022-11-20T06:29:46;3.33;;;2.30;;
21386;SDS011;10854;45.922;6.716;2022-11-20T06:32:15;2.03;;;1.40;;
21386;SDS011;10854;45.922;6.716;2022-11-20T06:34:44;2.03;;;1.03;;
21386;SDS011;10854;45.922;6.716;2022-11-20T06:37:13;1.07;;;0.90;;
21386;SDS011;10854;45.922;6.716;2022-11-20T06:39:42;1.47;;;1.20;;
21386;SDS011;10854;45.922;6.716;2022-11-20T06:42:11;1.30;;;1.20;;
21386;SDS011;10854;45.922;6.716;2022-11-20T06:44:40;0.90;;;0.90;;
21386;SDS011;10854;45.922;6.716;2022-11-20T06:47:09;2.47;;;1.30;;
21386;SDS011;10854;45.922;6.716;2022-11-20T06:49:37;2.07;;;1.30;;
21386;SDS011;10854;45.922;6.716;2022-11-20T06:52:06;1.40;;;1.30;;
21386;SDS011;10854;45.922;6.716;2022-11-20T06:54:35;1.50;;;1.10;;
21386;SDS011;10854;45.922;6.716;2022-11-20T06:57:05;1.50;;;1.13;;
21386;SDS011;10854;45.922;6.716;2022-11-20T06:59:35;1.27;;;1.10;;
21386;SDS011;10854;45.922;6.716;2022-11-20T07:02:04;1.67;;;1.20;;
21386;SDS011;10854;45.922;6.716;2022-11-20T07:04:33;1.50;;;1.10;;
21386;SDS011;10854;45.922;6.716;2022-11-20T07:07:02;0.90;;;0.90;;
21386;SDS011;10854;45.922;6.716;2022-11-20T07:09:32;1.50;;;1.23;;
21386;SDS011;10854;45.922;6.716;2022-11-20T07:12:01;1.53;;;1.10;;
21386;SDS011;10854;45.922;6.716;2022-11-20T07:14:33;1.40;;;1.20;;
21386;SDS011;10854;45.922;6.716;2022-11-20T07:17:04;1.43;;;1.10;;
21386;SDS011;10854;45.922;6.716;2022-11-20T07:19:34;1.77;;;1.50;;
21386;SDS011;10854;45.922;6.716;2022-11-20T07:22:08;1.40;;;1.10;;
21386;SDS011;10854;45.922;6.716;2022-11-20T07:24:37;1.40;;;1.30;;
21386;SDS011;10854;45.922;6.716;2022-11-20T07:27:09;1.30;;;1.20;;
21386;SDS011;10854;45.922;6.716;2022-11-20T07:29:37;1.10;;;1.00;;
21386;SDS011;10854;45.922;6.716;2022-11-20T07:32:07;1.97;;;1.67;;
21386;SDS011;10854;45.922;6.716;2022-11-20T07:34:36;2.20;;;1.80;;
21386;SDS011;10854;45.922;6.716;2022-11-20T07:37:06;2.70;;;1.53;;
21386;SDS011;10854;45.922;6.716;2022-11-20T07:39:36;3.00;;;1.43;;
21386;SDS011;10854;45.922;6.716;2022-11-20T07:42:05;1.83;;;1.20;;
21386;SDS011;10854;45.922;6.716;2022-11-20T07:44:35;2.30;;;1.30;;
21386;SDS011;10854;45.922;6.716;2022-11-20T07:47:04;1.33;;;1.23;;
21386;SDS011;10854;45.922;6.716;2022-11-20T07:49:34;1.47;;;1.13;;
21386;SDS011;10854;45.922;6.716;2022-11-20T07:52:03;3.13;;;1.50;;
21386;SDS011;10854;45.922;6.716;2022-11-20T07:54:31;1.70;;;1.30;;
21386;SDS011;10854;45.922;6.716;2022-11-20T07:57:01;2.47;;;1.53;;
21386;SDS011;10854;45.922;6.716;2022-11-20T07:59:30;3.30;;;1.43;;
21386;SDS011;10854;45.922;6.716;2022-11-20T08:01:59;3.30;;;1.50;;
21386;SDS011;10854;45.922;6.716;2022-11-20T08:04:29;4.57;;;2.50;;
21386;SDS011;10854;45.922;6.716;2022-11-20T08:06:59;3.70;;;1.70;;
21386;SDS011;10854;45.922;6.716;2022-11-20T08:09:29;5.17;;;1.53;;
21386;SDS011;10854;45.922;6.716;2022-11-20T08:12:00;3.13;;;1.40;;
21386;SDS011;10854;45.922;6.716;2022-11-20T08:14:47;2.63;;;1.40;;
21386;SDS011;10854;45.922;6.716;2022-11-20T08:17:16;2.33;;;1.30;;
21386;SDS011;10854;45.922;6.716;2022-11-20T08:19:46;2.20;;;1.50;;
21386;SDS011;10854;45.922;6.716;2022-11-20T08:22:15;2.80;;;1.83;;
21386;SDS011;10854;45.922;6.716;2022-11-20T08:24:45;1.60;;;1.40;;
21386;SDS011;10854;45.922;6.716;2022-11-20T08:27:15;1.83;;;1.53;;
21386;SDS011;10854;45.922;6.716;2022-11-20T08:30:01;5.03;;;1.70;;
21386;SDS011;10854;45.922;6.716;2022-11-20T08:32:34;3.20;;;1.67;;
21386;SDS011;10854;45.922;6.716;2022-11-20T08:35:19;2.97;;;2.17;;
21386;SDS011;10854;45.922;6.716;2022-11-20T08:37:59;4.83;;;3.07;;
21386;SDS011;10854;45.922;6.716;2022-11-20T08:40:46;4.30;;;2.13;;
21386;SDS011;10854;45.922;6.716;2022-11-20T08:46:54;13.37;;;8.57;;
21386;SDS011;10854;45.922;6.716;2022-11-20T08:49:55;12.80;;;7.27;;
21386;SDS011;10854;45.922;6.716;2022-11-20T08:52:35;11.47;;;7.77;;
21386;SDS011;10854;45.922;6.716;2022-11-20T08:55:10;12.00;;;7.00;;
21386;SDS011;10854;45.922;6.716;2022-11-20T08:57:46;4.97;;;3.13;;
21386;SDS011;10854;45.922;6.716;2022-11-20T09:00:29;5.93;;;3.83;;
21386;SDS011;10854;45.922;6.716;2022-11-20T09:03:05;6.00;;;4.13;;
21386;SDS011;10854;45.922;6.716;2022-11-20T09:05:57;7.50;;;4.77;;
21386;SDS011;10854;45.922;6.716;2022-11-20T09:08:32;10.97;;;6.67;;
21386;SDS011;10854;45.922;6.716;2022-11-20T09:11:05;7.47;;;3.37;;
21386;SDS011;10854;45.922;6.716;2022-11-20T09:13:40;4.70;;;3.37;;
21386;SDS011;10854;45.922;6.716;2022-11-20T09:16:09;10.53;;;7.50;;
21386;SDS011;10854;45.922;6.716;2022-11-20T09:18:42;7.03;;;4.53;;
21386;SDS011;10854;45.922;6.716;2022-11-20T09:21:12;7.30;;;4.60;;
21386;SDS011;10854;45.922;6.716;2022-11-20T09:23:43;4.53;;;3.60;;
21386;SDS011;10854;45.922;6.716;2022-11-20T09:26:27;13.17;;;7.07;;
21386;SDS011;10854;45.922;6.716;2022-11-20T09:28:58;15.00;;;9.10;;
21386;SDS011;10854;45.922;6.716;2022-11-20T09:31:44;9.63;;;7.67;;
21386;SDS011;10854;45.922;6.716;2022-11-20T09:34:23;5.27;;;3.90;;
21386;SDS011;10854;45.922;6.716;2022-11-20T09:36:52;4.73;;;2.97;;
21386;SDS011;10854;45.922;6.716;2022-11-20T09:39:22;6.97;;;3.80;;
21386;SDS011;10854;45.922;6.716;2022-11-20T09:53:16;3.80;;;2.10;;
21386;SDS011;10854;45.922;6.716;2022-11-20T09:56:12;2.33;;;1.87;;
21386;SDS011;10854;45.922;6.716;2022-11-20T09:58:48;2.43;;;2.23;;
21386;SDS011;10854;45.922;6.716;2022-11-20T10:01:20;3.70;;;2.57;;
21386;SDS011;10854;45.922;6.716;2022-11-20T10:03:55;4.83;;;3.37;;
21386;SDS011;10854;45.922;6.716;2022-11-20T10:06:31;2.77;;;2.53;;
21386;SDS011;10854;45.922;6.716;2022-11-20T10:09:49;4.30;;;2.63;;
21386;SDS011;10854;45.922;6.716;2022-11-20T10:12:19;3.10;;;2.30;;
21386;SDS011;10854;45.922;6.716;2022-11-20T10:17:55;3.93;;;2.30;;
21386;SDS011;10854;45.922;6.716;2022-11-20T10:20:53;2.73;;;2.10;;
21386;SDS011;10854;45.922;6.716;2022-11-20T10:26:22;2.57;;;1.80;;
21386;SDS011;10854;45.922;6.716;2022-11-20T10:31:42;3.30;;;2.10;;
21386;SDS011;10854;45.922;6.716;2022-11-20T10:37:01;3.03;;;2.00;;
21386;SDS011;10854;45.922;6.716;2022-11-20T10:40:03;2.40;;;1.80;;
21386;SDS011;10854;45.922;6.716;2022-11-20T10:43:00;1.87;;;1.63;;
21386;SDS011;10854;45.922;6.716;2022-11-20T10:45:34;1.90;;;1.60;;
21386;SDS011;10854;45.922;6.716;2022-11-20T10:48:10;2.03;;;1.50;;
21386;SDS011;10854;45.922;6.716;2022-11-20T10:50:55;1.73;;;1.60;;
21386;SDS011;10854;45.922;6.716;2022-11-20T10:53:47;2.00;;;1.50;;
21386;SDS011;10854;45.922;6.716;2022-11-20T10:56:21;1.87;;;1.53;;
21386;SDS011;10854;45.922;6.716;2022-11-20T11:01:42;2.30;;;1.77;;
21386;SDS011;10854;45.922;6.716;2022-11-20T11:04:19;1.43;;;1.27;;
21386;SDS011;10854;45.922;6.716;2022-11-20T11:07:10;1.60;;;1.50;;
21386;SDS011;10854;45.922;6.716;2022-11-20T11:09:44;1.57;;;1.20;;
21386;SDS011;10854;45.922;6.716;2022-11-20T11:12:20;2.23;;;1.60;;
21386;SDS011;10854;45.922;6.716;2022-11-20T11:14:52;2.00;;;1.50;;
21386;SDS011;10854;45.922;6.716;2022-11-20T11:17:29;2.03;;;1.83;;
21386;SDS011;10854;45.922;6.716;2022-11-20T11:20:14;1.37;;;1.10;;
21386;SDS011;10854;45.922;6.716;2022-11-20T11:22:51;1.93;;;1.20;;
21386;SDS011;10854;45.922;6.716;2022-11-20T11:25:26;1.20;;;1.10;;
21386;SDS011;10854;45.922;6.716;2022-11-20T11:27:58;2.57;;;1.27;;
21386;SDS011;10854;45.922;6.716;2022-11-20T11:30:29;1.40;;;1.30;;
21386;SDS011;10854;45.922;6.716;2022-11-20T11:33:09;2.13;;;1.57;;
21386;SDS011;10854;45.922;6.716;2022-11-20T11:35:58;1.70;;;1.30;;
21386;SDS011;10854;45.922;6.716;2022-11-20T11:38:34;2.40;;;1.33;;
21386;SDS011;10854;45.922;6.716;2022-11-20T11:41:10;2.87;;;1.40;;
21386;SDS011;10854;45.922;6.716;2022-11-20T11:43:52;1.87;;;1.27;;
21386;SDS011;10854;45.922;6.716;2022-11-20T11:46:44;2.27;;;1.10;;
21386;SDS011;10854;45.922;6.716;2022-11-20T11:49:21;3.33;;;1.17;;
21386;SDS011;10854;45.922;6.716;2022-11-20T11:54:49;2.03;;;1.50;;
21386;SDS011;10854;45.922;6.716;2022-11-20T12:00:01;1.43;;;1.10;;
21386;SDS011;10854;45.922;6.716;2022-11-20T12:05:23;1.63;;;1.03;;
21386;SDS011;10854;45.922;6.716;2022-11-20T12:08:02;1.10;;;0.90;;
21386;SDS011;10854;45.922;6.716;2022-11-20T12:10:44;1.43;;;1.00;;
21386;SDS011;10854;45.922;6.716;2022-11-20T12:16:01;1.17;;;0.90;;
21386;SDS011;10854;45.922;6.716;2022-11-20T12:18:31;2.40;;;0.90;;
21386;SDS011;10854;45.922;6.716;2022-11-20T12:21:03;1.33;;;1.20;;
21386;SDS011;10854;45.922;6.716;2022-11-20T12:24:24;2.00;;;1.10;;
21386;SDS011;10854;45.922;6.716;2022-11-20T12:27:16;2.10;;;1.00;;
21386;SDS011;10854;45.922;6.716;2022-11-20T12:32:31;1.40;;;1.30;;
21386;SDS011;10854;45.922;6.716;2022-11-20T12:41:16;1.60;;;1.30;;
21386;SDS011;10854;45.922;6.716;2022-11-20T12:47:37;2.43;;;1.17;;
21386;SDS011;10854;45.922;6.716;2022-11-20T12:53:30;1.30;;;1.10;;
21386;SDS011;10854;45.922;6.716;2022-11-20T12:56:26;1.97;;;1.30;;
21386;SDS011;10854;45.922;6.716;2022-11-20T13:01:40;1.77;;;1.00;;
21386;SDS011;10854;45.922;6.716;2022-11-20T13:04:24;1.10;;;1.00;;
21386;SDS011;10854;45.922;6.716;2022-11-20T13:07:03;3.63;;;2.00;;
21386;SDS011;10854;45.922;6.716;2022-11-20T13:09:36;2.37;;;1.80;;
21386;SDS011;10854;45.922;6.716;2022-11-20T13:15:18;2.00;;;0.93;;
21386;SDS011;10854;45.922;6.716;2022-11-20T13:18:09;2.47;;;1.00;;
21386;SDS011;10854;45.922;6.716;2022-11-20T13:20:43;1.10;;;1.00;;
21386;SDS011;10854;45.922;6.716;2022-11-20T13:23:26;1.53;;;1.10;;
21386;SDS011;10854;45.922;6.716;2022-11-20T13:26:14;1.07;;;0.90;;
21386;SDS011;10854;45.922;6.716;2022-11-20T13:28:47;1.07;;;0.97;;
21386;SDS011;10854;45.922;6.716;2022-11-20T13:31:31;1.73;;;1.00;;
21386;SDS011;10854;45.922;6.716;2022-11-20T13:34:03;2.03;;;1.40;;
21386;SDS011;10854;45.922;6.716;2022-11-20T13:36:34;7.97;;;3.17;;
21386;SDS011;10854;45.922;6.716;2022-11-20T13:39:04;1.67;;;1.20;;
21386;SDS011;10854;45.922;6.716;2022-11-20T13:41:36;3.33;;;1.50;;
21386;SDS011;10854;45.922;6.716;2022-11-20T13:46:42;1.60;;;1.50;;
21386;SDS011;10854;45.922;6.716;2022-11-20T13:49:17;1.53;;;1.30;;
21386;SDS011;10854;45.922;6.716;2022-11-20T13:54:52;4.67;;;1.60;;
21386;SDS011;10854;45.922;6.716;2022-11-20T14:00:22;13.53;;;6.27;;
21386;SDS011;10854;45.922;6.716;2022-11-20T14:03:15;4.20;;;2.17;;
21386;SDS011;10854;45.922;6.716;2022-11-20T14:06:04;2.13;;;1.27;;
21386;SDS011;10854;45.922;6.716;2022-11-20T14:08:46;2.37;;;1.70;;
21386;SDS011;10854;45.922;6.716;2022-11-20T14:11:19;6.37;;;3.13;;
21386;SDS011;10854;45.922;6.716;2022-11-20T14:14:00;1.77;;;1.30;;
21386;SDS011;10854;45.922;6.716;2022-11-20T14:16:40;4.90;;;1.80;;
21386;SDS011;10854;45.922;6.716;2022-11-20T14:19:29;13.97;;;5.03;;
21386;SDS011;10854;45.922;6.716;2022-11-20T14:22:10;1.83;;;1.37;;
21386;SDS011;10854;45.922;6.716;2022-11-20T14:24:42;1.30;;;1.20;;
21386;SDS011;10854;45.922;6.716;2022-11-20T14:27:29;3.03;;;1.40;;
21386;SDS011;10854;45.922;6.716;2022-11-20T14:30:05;4.33;;;3.77;;
21386;SDS011;10854;45.922;6.716;2022-11-20T14:32:41;2.47;;;1.27;;
21386;SDS011;10854;45.922;6.716;2022-11-20T14:35:20;2.57;;;1.33;;
21386;SDS011;10854;45.922;6.716;2022-11-20T14:37:52;2.13;;;1.10;;
21386;SDS011;10854;45.922;6.716;2022-11-20T14:40:31;1.73;;;1.50;;
21386;SDS011;10854;45.922;6.716;2022-11-20T14:45:55;2.13;;;1.40;;
21386;SDS011;10854;45.922;6.716;2022-11-20T14:48:31;2.37;;;1.77;;
21386;SDS011;10854;45.922;6.716;2022-11-20T14:51:04;2.40;;;1.70;;
21386;SDS011;10854;45.922;6.716;2022-11-20T14:53:33;2.13;;;1.47;;
21386;SDS011;10854;45.922;6.716;2022-11-20T14:56:01;2.27;;;1.70;;
21386;SDS011;10854;45.922;6.716;2022-11-20T14:58:32;1.70;;;1.57;;
21386;SDS011;10854;45.922;6.716;2022-11-20T15:01:04;1.90;;;1.57;;
21386;SDS011;10854;45.922;6.716;2022-11-20T15:03:38;2.57;;;1.27;;
21386;SDS011;10854;45.922;6.716;2022-11-20T15:06:10;2.23;;;1.40;;
21386;SDS011;10854;45.922;6.716;2022-11-20T15:08:50;2.80;;;2.00;;
21386;SDS011;10854;45.922;6.716;2022-11-20T15:11:20;20.10;;;9.30;;
21386;SDS011;10854;45.922;6.716;2022-11-20T15:14:02;12.60;;;6.03;;
21386;SDS011;10854;45.922;6.716;2022-11-20T15:16:34;2.00;;;1.43;;
21386;SDS011;10854;45.922;6.716;2022-11-20T15:19:07;5.00;;;3.10;;
21386;SDS011;10854;45.922;6.716;2022-11-20T15:21:45;11.70;;;5.57;;
21386;SDS011;10854;45.922;6.716;2022-11-20T15:24:14;2.93;;;2.00;;
21386;SDS011;10854;45.922;6.716;2022-11-20T15:26:43;3.50;;;2.03;;
21386;SDS011;10854;45.922;6.716;2022-11-20T15:29:12;2.37;;;1.60;;
21386;SDS011;10854;45.922;6.716;2022-11-20T15:31:46;2.17;;;1.60;;
21386;SDS011;10854;45.922;6.716;2022-11-20T15:34:15;2.07;;;1.57;;
21386;SDS011;10854;45.922;6.716;2022-11-20T15:36:44;1.80;;;1.40;;
21386;SDS011;10854;45.922;6.716;2022-11-20T15:39:13;2.37;;;1.27;;
21386;SDS011;10854;45.922;6.716;2022-11-20T15:41:44;2.70;;;1.80;;
21386;SDS011;10854;45.922;6.716;2022-11-20T15:44:13;1.80;;;1.37;;
21386;SDS011;10854;45.922;6.716;2022-11-20T15:46:42;3.30;;;2.50;;
21386;SDS011;10854;45.922;6.716;2022-11-20T15:49:13;2.50;;;1.90;;
21386;SDS011;10854;45.922;6.716;2022-11-20T15:51:44;2.33;;;1.70;;
21386;SDS011;10854;45.922;6.716;2022-11-20T15:54:19;5.37;;;2.33;;
21386;SDS011;10854;45.922;6.716;2022-11-20T15:56:49;3.40;;;2.27;;
21386;SDS011;10854;45.922;6.716;2022-11-20T15:59:21;2.87;;;2.20;;
21386;SDS011;10854;45.922;6.716;2022-11-20T16:01:50;3.40;;;2.40;;
21386;SDS011;10854;45.922;6.716;2022-11-20T16:04:19;14.17;;;7.83;;
21386;SDS011;10854;45.922;6.716;2022-11-20T16:06:49;3.00;;;2.03;;
21386;SDS011;10854;45.922;6.716;2022-11-20T16:09:17;4.07;;;2.50;;
21386;SDS011;10854;45.922;6.716;2022-11-20T16:11:48;3.43;;;2.87;;
21386;SDS011;10854;45.922;6.716;2022-11-20T16:14:16;3.33;;;2.00;;
21386;SDS011;10854;45.922;6.716;2022-11-20T16:17:05;4.97;;;2.80;;
21386;SDS011;10854;45.922;6.716;2022-11-20T16:19:34;5.23;;;2.60;;
21386;SDS011;10854;45.922;6.716;2022-11-20T16:22:03;6.27;;;5.33;;
21386;SDS011;10854;45.922;6.716;2022-11-20T16:24:32;4.87;;;3.80;;
21386;SDS011;10854;45.922;6.716;2022-11-20T16:27:02;3.97;;;2.90;;
21386;SDS011;10854;45.922;6.716;2022-11-20T16:29:31;3.80;;;2.50;;
21386;SDS011;10854;45.922;6.716;2022-11-20T16:32:00;4.50;;;3.00;;
21386;SDS011;10854;45.922;6.716;2022-11-20T16:34:30;4.10;;;2.93;;
21386;SDS011;10854;45.922;6.716;2022-11-20T16:37:00;5.17;;;2.50;;
21386;SDS011;10854;45.922;6.716;2022-11-20T16:39:29;4.60;;;3.17;;
21386;SDS011;10854;45.922;6.716;2022-11-20T16:42:02;6.07;;;3.13;;
21386;SDS011;10854;45.922;6.716;2022-11-20T16:44:34;3.53;;;2.90;;
21386;SDS011;10854;45.922;6.716;2022-11-20T16:47:04;4.27;;;2.60;;
21386;SDS011;10854;45.922;6.716;2022-11-20T16:49:33;3.80;;;2.60;;
21386;SDS011;10854;45.922;6.716;2022-11-20T16:52:02;4.67;;;3.43;;